createdAt,value
2017-02-14T00:00:31.243Z,0
2017-02-14T00:01:44.315Z,0
2017-02-14T00:02:57.418Z,0
2017-02-14T00:04:10.558Z,0
2017-02-14T00:05:23.612Z,0
2017-02-14T00:06:36.755Z,0
2017-02-14T00:07:49.440Z,0
2017-02-14T00:09:02.493Z,0
2017-02-14T00:10:15.183Z,0
2017-02-14T00:11:28.274Z,0
2017-02-14T00:12:41.386Z,0
2017-02-14T00:13:54.853Z,0
2017-02-14T00:15:07.924Z,0
2017-02-14T00:16:19.458Z,0
2017-02-14T00:17:32.566Z,0
2017-02-14T00:18:45.615Z,0
2017-02-14T00:19:58.675Z,0
2017-02-14T00:21:11.349Z,0
2017-02-14T00:22:24.423Z,0
2017-02-14T00:23:37.524Z,0
2017-02-14T00:24:50.587Z,0
2017-02-14T00:26:03.641Z,0
2017-02-14T00:27:15.580Z,0
2017-02-14T00:28:28.602Z,0
2017-02-14T00:29:41.731Z,0
2017-02-14T00:30:54.447Z,0
2017-02-14T00:32:07.543Z,0
2017-02-14T00:33:20.233Z,0
2017-02-14T00:34:33.310Z,0
2017-02-14T00:35:46.749Z,0
2017-02-14T00:36:59.821Z,0
2017-02-14T00:38:12.513Z,0
2017-02-14T00:39:24.823Z,0
2017-02-14T00:40:37.909Z,0
2017-02-14T00:41:51.034Z,0
2017-02-14T00:43:04.178Z,0
2017-02-14T00:44:16.872Z,0
2017-02-14T00:45:29.944Z,0
2017-02-14T00:46:43.038Z,0
2017-02-14T00:47:56.133Z,0
2017-02-14T00:49:09.186Z,0
2017-02-14T00:50:21.459Z,0
2017-02-14T00:51:34.563Z,0
2017-02-14T00:52:47.692Z,0
2017-02-14T00:54:00.738Z,0
2017-02-14T00:55:13.845Z,0
2017-02-14T00:56:26.941Z,0
2017-02-14T00:57:40.048Z,0
2017-02-14T00:58:53.143Z,0
2017-02-14T01:00:06.251Z,0
2017-02-14T01:01:18.561Z,0
2017-02-14T01:02:31.685Z,0
2017-02-14T01:03:44.746Z,0
2017-02-14T01:04:57.868Z,0
2017-02-14T01:06:10.570Z,0
2017-02-14T01:07:23.642Z,0
2017-02-14T01:08:36.796Z,0
2017-02-14T01:09:49.565Z,0
2017-02-14T01:11:02.665Z,0
2017-02-14T01:12:15.387Z,0
2017-02-14T01:13:28.469Z,0
2017-02-14T01:14:41.552Z,0
2017-02-14T01:15:54.626Z,0
2017-02-14T01:17:07.683Z,0
2017-02-14T01:18:20.363Z,0
2017-02-14T01:19:33.286Z,0
2017-02-14T01:20:46.347Z,0
2017-02-14T01:21:59.416Z,0
2017-02-14T01:23:12.119Z,0
2017-02-14T01:24:24.813Z,0
2017-02-14T01:25:37.887Z,0
2017-02-14T01:26:51.004Z,0
2017-02-14T01:28:03.697Z,0
2017-02-14T01:29:16.813Z,0
2017-02-14T01:30:29.881Z,0
2017-02-14T01:31:42.961Z,0
2017-02-14T01:32:56.012Z,0
2017-02-14T01:34:09.125Z,0
2017-02-14T01:35:22.190Z,0
2017-02-14T01:36:35.277Z,0
2017-02-14T01:37:48.372Z,0
2017-02-14T01:39:01.442Z,0
2017-02-14T01:40:14.132Z,0
2017-02-14T01:41:27.175Z,0
2017-02-14T01:42:40.277Z,0
2017-02-14T01:43:53.386Z,0
2017-02-14T01:45:06.462Z,0
2017-02-14T01:46:19.814Z,0
2017-02-14T01:47:32.938Z,0
2017-02-14T01:48:46.027Z,0
2017-02-14T01:49:59.086Z,0
2017-02-14T01:51:12.206Z,0
2017-02-14T01:52:25.333Z,0
2017-02-14T01:53:38.417Z,0
2017-02-14T01:54:51.157Z,0
2017-02-14T01:56:03.845Z,0
2017-02-14T01:57:16.523Z,0
2017-02-14T01:58:29.580Z,0
2017-02-14T01:59:42.689Z,0
2017-02-14T02:00:55.784Z,0
2017-02-14T02:02:08.540Z,0
2017-02-14T02:03:21.603Z,0
2017-02-14T02:04:34.707Z,0
2017-02-14T02:05:47.804Z,0
2017-02-14T02:07:00.891Z,0
2017-02-14T02:08:14.164Z,0
2017-02-14T02:09:26.875Z,0
2017-02-14T02:10:39.195Z,0
2017-02-14T02:11:52.281Z,0
2017-02-14T02:13:05.410Z,0
2017-02-14T02:14:18.483Z,0
2017-02-14T02:15:31.529Z,0
2017-02-14T02:16:44.615Z,0
2017-02-14T02:17:57.689Z,0
2017-02-14T02:19:10.775Z,0
2017-02-14T02:20:23.513Z,0
2017-02-14T02:21:36.615Z,0
2017-02-14T02:22:49.785Z,0
2017-02-14T02:24:02.890Z,0
2017-02-14T02:25:15.985Z,0
2017-02-14T02:26:29.085Z,0
2017-02-14T02:27:42.134Z,0
2017-02-14T02:28:55.225Z,0
2017-02-14T02:30:07.983Z,0
2017-02-14T02:31:21.101Z,0
2017-02-14T02:32:34.235Z,0
2017-02-14T02:33:47.305Z,0
2017-02-14T02:35:00.390Z,0
2017-02-14T02:36:13.449Z,0
2017-02-14T02:37:26.540Z,0
2017-02-14T02:38:39.255Z,0
2017-02-14T02:39:52.581Z,0
2017-02-14T02:41:05.299Z,0
2017-02-14T02:42:18.370Z,0
2017-02-14T02:43:31.466Z,0
2017-02-14T02:44:44.505Z,0
2017-02-14T02:45:57.607Z,0
2017-02-14T02:47:10.661Z,0
2017-02-14T02:48:23.758Z,0
2017-02-14T02:49:36.846Z,0
2017-02-14T02:50:49.935Z,0
2017-02-14T02:52:03.056Z,0
2017-02-14T02:53:16.120Z,0
2017-02-14T02:54:28.815Z,0
2017-02-14T02:55:41.905Z,0
2017-02-14T02:56:54.913Z,0
2017-02-14T02:58:07.966Z,0
2017-02-14T02:59:20.700Z,0
2017-02-14T03:00:33.842Z,0
2017-02-14T03:01:46.929Z,0
2017-02-14T03:03:00.056Z,0
2017-02-14T03:04:13.177Z,0
2017-02-14T03:05:26.309Z,0
2017-02-14T03:06:39.380Z,0
2017-02-14T03:07:52.464Z,0
2017-02-14T03:09:05.530Z,0
2017-02-14T03:10:18.204Z,0
2017-02-14T03:11:30.952Z,0
2017-02-14T03:12:43.646Z,0
2017-02-14T03:13:56.720Z,0
2017-02-14T03:15:09.451Z,0
2017-02-14T03:16:22.504Z,0
2017-02-14T03:17:35.561Z,0
2017-02-14T03:18:48.667Z,0
2017-02-14T03:20:01.760Z,0
2017-02-14T03:21:14.796Z,0
2017-02-14T03:22:27.878Z,0
2017-02-14T03:23:40.979Z,0
2017-02-14T03:24:54.074Z,0
2017-02-14T03:26:07.152Z,0
2017-02-14T03:27:20.190Z,0
2017-02-14T03:28:33.241Z,0
2017-02-14T03:29:46.365Z,0
2017-02-14T03:30:59.424Z,0
2017-02-14T03:32:12.542Z,0
2017-02-14T03:33:24.456Z,0
2017-02-14T03:34:37.535Z,0
2017-02-14T03:35:49.838Z,0
2017-02-14T03:37:02.932Z,0
2017-02-14T03:38:15.630Z,0
2017-02-14T03:39:28.324Z,0
2017-02-14T03:40:41.380Z,0
2017-02-14T03:41:54.477Z,0
2017-02-14T03:43:07.167Z,0
2017-02-14T03:44:20.291Z,0
2017-02-14T03:45:33.357Z,0
2017-02-14T03:46:46.450Z,0
2017-02-14T03:47:59.514Z,0
2017-02-14T03:49:12.597Z,0
2017-02-14T03:50:25.563Z,0
2017-02-14T03:51:38.644Z,0
2017-02-14T03:52:51.761Z,0
2017-02-14T03:54:04.907Z,0
2017-02-14T03:55:17.624Z,0
2017-02-14T03:56:30.735Z,0
2017-02-14T03:57:43.020Z,0
2017-02-14T03:58:56.128Z,0
2017-02-14T04:00:09.224Z,0
2017-02-14T04:01:22.304Z,0
2017-02-14T04:02:35.371Z,0
2017-02-14T04:03:48.468Z,0
2017-02-14T04:05:01.571Z,0
2017-02-14T04:06:14.709Z,0
2017-02-14T04:07:27.404Z,0
2017-02-14T04:08:40.108Z,0
2017-02-14T04:09:53.220Z,0
2017-02-14T04:11:05.980Z,0
2017-02-14T04:12:18.746Z,0
2017-02-14T04:13:31.810Z,0
2017-02-14T04:14:44.541Z,0
2017-02-14T04:15:57.650Z,0
2017-02-14T04:17:10.775Z,0
2017-02-14T04:18:23.825Z,0
2017-02-14T04:19:36.913Z,0
2017-02-14T04:20:49.986Z,0
2017-02-14T04:22:03.087Z,0
2017-02-14T04:23:15.432Z,0
2017-02-14T04:24:28.536Z,0
2017-02-14T04:25:41.596Z,0
2017-02-14T04:26:54.690Z,0
2017-02-14T04:28:07.762Z,0
2017-02-14T04:29:20.060Z,0
2017-02-14T04:30:33.170Z,0
2017-02-14T04:31:46.224Z,0
2017-02-14T04:32:59.304Z,0
2017-02-14T04:34:12.023Z,0
2017-02-14T04:35:24.761Z,0
2017-02-14T04:36:37.808Z,0
2017-02-14T04:37:50.902Z,0
2017-02-14T04:39:04.040Z,0
2017-02-14T04:40:17.126Z,0
2017-02-14T04:41:30.205Z,0
2017-02-14T04:42:42.915Z,0
2017-02-14T04:43:55.943Z,0
2017-02-14T04:45:09.052Z,0
2017-02-14T04:46:22.128Z,0
2017-02-14T04:47:35.250Z,0
2017-02-14T04:48:48.340Z,0
2017-02-14T04:50:01.396Z,0
2017-02-14T04:51:14.092Z,0
2017-02-14T04:52:27.178Z,0
2017-02-14T04:53:40.247Z,0
2017-02-14T04:54:53.279Z,0
2017-02-14T04:56:06.392Z,0
2017-02-14T04:57:19.144Z,0
2017-02-14T04:58:32.215Z,0
2017-02-14T04:59:45.328Z,0
2017-02-14T05:00:58.393Z,0
2017-02-14T05:02:11.469Z,0
2017-02-14T05:03:24.148Z,0
2017-02-14T05:04:37.245Z,0
2017-02-14T05:05:49.975Z,0
2017-02-14T05:07:03.031Z,0
2017-02-14T05:08:15.702Z,0
2017-02-14T05:09:28.775Z,0
2017-02-14T05:10:41.915Z,0
2017-02-14T05:11:54.644Z,0
2017-02-14T05:13:07.701Z,0
2017-02-14T05:14:20.410Z,0
2017-02-14T05:15:33.499Z,0
2017-02-14T05:16:46.583Z,0
2017-02-14T05:17:59.715Z,0
2017-02-14T05:19:12.765Z,0
2017-02-14T05:20:25.868Z,0
2017-02-14T05:21:39.023Z,0
2017-02-14T05:22:52.111Z,0
2017-02-14T05:24:05.172Z,0
2017-02-14T05:25:18.272Z,0
2017-02-14T05:26:30.981Z,0
2017-02-14T05:27:44.070Z,0
2017-02-14T05:28:56.733Z,0
2017-02-14T05:30:09.061Z,0
2017-02-14T05:31:22.178Z,0
2017-02-14T05:32:35.235Z,0
2017-02-14T05:33:48.289Z,0
2017-02-14T05:35:01.009Z,0
2017-02-14T05:36:13.687Z,0
2017-02-14T05:37:26.758Z,0
2017-02-14T05:38:39.846Z,0
2017-02-14T05:39:52.602Z,0
2017-02-14T05:41:05.739Z,0
2017-02-14T05:42:18.828Z,0
2017-02-14T05:43:31.949Z,0
2017-02-14T05:44:44.633Z,0
2017-02-14T05:45:57.722Z,0
2017-02-14T05:47:10.419Z,0
2017-02-14T05:48:23.507Z,0
2017-02-14T05:49:36.216Z,4
2017-02-14T05:50:49.336Z,0
2017-02-14T05:52:02.405Z,4
2017-02-14T05:53:14.742Z,4
2017-02-14T05:54:27.792Z,4
2017-02-14T05:55:40.515Z,4
2017-02-14T05:56:53.645Z,4
2017-02-14T05:58:06.763Z,8
2017-02-14T05:59:19.826Z,12
2017-02-14T06:00:32.527Z,12
2017-02-14T06:01:45.897Z,16
2017-02-14T06:02:59.008Z,20
2017-02-14T06:04:12.123Z,24
2017-02-14T06:05:25.207Z,28
2017-02-14T06:06:37.937Z,36
2017-02-14T06:07:51.047Z,40
2017-02-14T06:09:04.127Z,56
2017-02-14T06:10:16.840Z,64
2017-02-14T06:11:29.542Z,76
2017-02-14T06:12:42.632Z,88
2017-02-14T06:13:55.681Z,104
2017-02-14T06:15:08.743Z,120
2017-02-14T06:16:21.051Z,140
2017-02-14T06:17:33.707Z,160
2017-02-14T06:18:46.743Z,188
2017-02-14T06:19:59.839Z,212
2017-02-14T06:21:12.938Z,236
2017-02-14T06:22:26.033Z,268
2017-02-14T06:23:39.095Z,300
2017-02-14T06:24:52.170Z,336
2017-02-14T06:26:05.265Z,376
2017-02-14T06:27:17.958Z,412
2017-02-14T06:28:31.062Z,452
2017-02-14T06:29:43.772Z,496
2017-02-14T06:30:56.876Z,544
2017-02-14T06:32:09.246Z,588
2017-02-14T06:33:21.923Z,644
2017-02-14T06:34:35.063Z,692
2017-02-14T06:35:48.129Z,740
2017-02-14T06:37:01.251Z,792
2017-02-14T06:38:14.301Z,852
2017-02-14T06:39:27.398Z,908
2017-02-14T06:40:40.488Z,964
2017-02-14T06:41:53.617Z,1012
2017-02-14T06:43:06.717Z,1076
2017-02-14T06:44:19.781Z,1136
2017-02-14T06:45:32.752Z,1204
2017-02-14T06:46:45.860Z,1264
2017-02-14T06:47:58.915Z,1308
2017-02-14T06:49:11.986Z,1364
2017-02-14T06:50:25.086Z,1416
2017-02-14T06:51:38.150Z,1480
2017-02-14T06:52:51.201Z,1528
2017-02-14T06:54:04.286Z,1600
2017-02-14T06:55:16.997Z,1692
2017-02-14T06:56:29.709Z,1784
2017-02-14T06:57:42.381Z,1832
2017-02-14T06:58:55.058Z,1884
2017-02-14T07:00:07.773Z,1948
2017-02-14T07:01:20.466Z,2048
2017-02-14T07:02:33.612Z,2096
2017-02-14T07:03:46.294Z,2156
2017-02-14T07:04:59.380Z,2212
2017-02-14T07:06:12.444Z,2252
2017-02-14T07:07:25.503Z,2328
2017-02-14T07:08:38.591Z,2408
2017-02-14T07:09:51.719Z,2456
2017-02-14T07:11:04.833Z,2528
2017-02-14T07:12:17.912Z,2604
2017-02-14T07:13:31.021Z,2644
2017-02-14T07:14:44.089Z,2656
2017-02-14T07:15:57.199Z,2692
2017-02-14T07:17:10.296Z,2796
2017-02-14T07:18:23.402Z,2808
2017-02-14T07:19:36.438Z,2864
2017-02-14T07:20:49.524Z,3032
2017-02-14T07:22:02.590Z,3116
2017-02-14T07:23:15.503Z,3180
2017-02-14T07:24:28.643Z,3288
2017-02-14T07:25:41.718Z,3768
2017-02-14T07:26:54.803Z,3852
2017-02-14T07:28:07.531Z,3756
2017-02-14T07:29:19.500Z,3980
2017-02-14T07:30:32.578Z,4260
2017-02-14T07:31:45.682Z,4212
2017-02-14T07:32:58.743Z,4204
2017-02-14T07:34:11.879Z,4316
2017-02-14T07:35:24.560Z,4276
2017-02-14T07:36:37.626Z,4296
2017-02-14T07:37:50.670Z,4244
2017-02-14T07:39:03.717Z,4332
2017-02-14T07:40:16.392Z,4444
2017-02-14T07:41:29.465Z,4436
2017-02-14T07:42:42.511Z,4412
2017-02-14T07:43:55.623Z,4428
2017-02-14T07:45:08.567Z,4548
2017-02-14T07:46:20.858Z,4472
2017-02-14T07:47:33.953Z,4492
2017-02-14T07:48:47.035Z,4588
2017-02-14T07:50:00.111Z,4564
2017-02-14T07:51:13.228Z,4676
2017-02-14T07:52:25.969Z,4600
2017-02-14T07:53:39.039Z,4688
2017-02-14T07:54:52.138Z,4672
2017-02-14T07:56:05.258Z,4636
2017-02-14T07:57:17.960Z,4792
2017-02-14T07:58:31.049Z,4948
2017-02-14T07:59:44.127Z,4936
2017-02-14T08:00:57.190Z,4924
2017-02-14T08:02:10.304Z,5044
2017-02-14T08:03:23.366Z,5056
2017-02-14T08:04:36.462Z,5192
2017-02-14T08:05:49.581Z,5244
2017-02-14T08:07:02.897Z,5296
2017-02-14T08:08:15.250Z,5292
2017-02-14T08:09:28.318Z,5480
2017-02-14T08:10:41.406Z,5468
2017-02-14T08:11:54.152Z,5548
2017-02-14T08:13:06.874Z,5716
2017-02-14T08:14:19.945Z,6012
2017-02-14T08:15:33.028Z,6044
2017-02-14T08:16:45.771Z,5932
2017-02-14T08:17:58.889Z,6004
2017-02-14T08:19:12.005Z,6028
2017-02-14T08:20:25.093Z,5996
2017-02-14T08:21:38.153Z,5884
2017-02-14T08:22:50.472Z,5820
2017-02-14T08:24:03.565Z,5692
2017-02-14T08:25:16.612Z,5664
2017-02-14T08:26:29.671Z,5804
2017-02-14T08:27:42.724Z,5788
2017-02-14T08:28:55.771Z,5756
2017-02-14T08:30:08.828Z,5836
2017-02-14T08:31:21.884Z,5944
2017-02-14T08:32:34.938Z,6116
2017-02-14T08:33:48.051Z,6140
2017-02-14T08:35:00.786Z,6140
2017-02-14T08:36:13.067Z,6176
2017-02-14T08:37:25.821Z,6248
2017-02-14T08:38:38.506Z,6376
2017-02-14T08:39:51.860Z,6304
2017-02-14T08:41:04.921Z,6220
2017-02-14T08:42:18.067Z,6124
2017-02-14T08:43:31.218Z,6268
2017-02-14T08:44:44.272Z,6316
2017-02-14T08:45:57.329Z,6340
2017-02-14T08:47:10.033Z,6352
2017-02-14T08:48:23.102Z,6372
2017-02-14T08:49:36.166Z,6084
2017-02-14T08:50:48.488Z,6284
2017-02-14T08:52:01.184Z,6420
2017-02-14T08:53:14.293Z,6380
2017-02-14T08:54:26.993Z,6324
2017-02-14T08:55:39.657Z,6332
2017-02-14T08:56:51.943Z,6196
2017-02-14T08:58:05.039Z,6252
2017-02-14T08:59:18.123Z,6216
2017-02-14T09:00:31.230Z,6192
2017-02-14T09:01:43.932Z,6168
2017-02-14T09:02:57.080Z,6056
2017-02-14T09:04:10.156Z,6012
2017-02-14T09:05:23.275Z,6052
2017-02-14T09:06:36.344Z,6072
2017-02-14T09:07:49.436Z,6112
2017-02-14T09:09:02.576Z,6064
2017-02-14T09:10:15.661Z,6000
2017-02-14T09:11:28.742Z,6008
2017-02-14T09:12:41.821Z,6004
2017-02-14T09:13:54.892Z,5932
2017-02-14T09:15:07.993Z,5904
2017-02-14T09:16:21.067Z,5896
2017-02-14T09:17:34.209Z,5808
2017-02-14T09:18:47.280Z,5732
2017-02-14T09:20:00.421Z,5732
2017-02-14T09:21:13.117Z,5748
2017-02-14T09:22:25.813Z,5736
2017-02-14T09:23:38.941Z,5692
2017-02-14T09:24:52.030Z,5676
2017-02-14T09:26:05.158Z,5664
2017-02-14T09:27:17.855Z,5588
2017-02-14T09:28:30.934Z,5624
2017-02-14T09:29:44.006Z,5672
2017-02-14T09:30:57.070Z,5624
2017-02-14T09:32:09.753Z,5564
2017-02-14T09:33:22.451Z,5500
2017-02-14T09:34:35.574Z,5472
2017-02-14T09:35:48.617Z,5504
2017-02-14T09:37:01.721Z,5508
2017-02-14T09:38:13.628Z,5452
2017-02-14T09:39:26.755Z,5440
2017-02-14T09:40:39.483Z,5476
2017-02-14T09:41:52.579Z,5472
2017-02-14T09:43:05.666Z,5472
2017-02-14T09:44:18.341Z,5460
2017-02-14T09:45:31.434Z,5480
2017-02-14T09:46:44.548Z,5496
2017-02-14T09:47:57.644Z,5476
2017-02-14T09:49:10.379Z,5504
2017-02-14T09:50:23.494Z,5540
2017-02-14T09:51:36.542Z,5528
2017-02-14T09:52:49.653Z,5500
2017-02-14T09:54:02.788Z,5500
2017-02-14T09:55:15.475Z,5500
2017-02-14T09:56:28.557Z,5540
2017-02-14T09:57:41.636Z,5540
2017-02-14T09:58:54.707Z,5532
2017-02-14T10:00:07.036Z,5528
2017-02-14T10:01:19.710Z,5532
2017-02-14T10:02:32.777Z,5464
2017-02-14T10:03:45.105Z,5380
2017-02-14T10:04:58.194Z,5412
2017-02-14T10:06:11.314Z,5400
2017-02-14T10:07:24.086Z,5380
2017-02-14T10:08:37.188Z,5364
2017-02-14T10:09:49.446Z,5328
2017-02-14T10:11:02.477Z,5328
2017-02-14T10:12:15.518Z,5312
2017-02-14T10:13:28.600Z,5280
2017-02-14T10:14:41.688Z,5256
2017-02-14T10:15:54.375Z,5212
2017-02-14T10:17:07.426Z,5212
2017-02-14T10:18:20.397Z,5236
2017-02-14T10:19:33.498Z,5276
2017-02-14T10:20:46.564Z,5344
2017-02-14T10:21:59.240Z,5332
2017-02-14T10:23:12.305Z,5320
2017-02-14T10:24:24.977Z,5280
2017-02-14T10:25:37.680Z,5244
2017-02-14T10:26:50.801Z,5240
2017-02-14T10:28:03.922Z,5240
2017-02-14T10:29:16.255Z,5256
2017-02-14T10:30:29.340Z,5236
2017-02-14T10:31:42.411Z,5276
2017-02-14T10:32:55.543Z,5232
2017-02-14T10:34:08.657Z,5208
2017-02-14T10:35:21.725Z,5244
2017-02-14T10:36:34.813Z,5244
2017-02-14T10:37:47.932Z,5204
2017-02-14T10:39:01.003Z,5212
2017-02-14T10:40:13.678Z,5220
2017-02-14T10:41:26.730Z,5224
2017-02-14T10:42:39.033Z,5196
2017-02-14T10:43:51.730Z,5144
2017-02-14T10:45:04.801Z,5124
2017-02-14T10:46:17.904Z,5092
2017-02-14T10:47:30.968Z,5076
2017-02-14T10:48:43.663Z,5048
2017-02-14T10:49:56.766Z,5084
2017-02-14T10:51:09.887Z,5068
2017-02-14T10:52:22.964Z,5008
2017-02-14T10:53:36.029Z,4968
2017-02-14T10:54:49.105Z,5028
2017-02-14T10:56:02.174Z,5064
2017-02-14T10:57:15.222Z,5056
2017-02-14T10:58:28.300Z,5076
2017-02-14T10:59:41.434Z,5036
2017-02-14T11:00:54.147Z,5080
2017-02-14T11:02:07.226Z,5092
2017-02-14T11:03:19.550Z,5076
2017-02-14T11:04:32.278Z,5136
2017-02-14T11:05:45.388Z,5132
2017-02-14T11:06:58.484Z,5104
2017-02-14T11:08:11.578Z,5072
2017-02-14T11:09:24.699Z,5008
2017-02-14T11:10:37.429Z,5036
2017-02-14T11:11:50.492Z,5068
2017-02-14T11:13:03.600Z,5104
2017-02-14T11:14:16.294Z,5104
2017-02-14T11:15:29.388Z,5060
2017-02-14T11:16:42.090Z,5048
2017-02-14T11:17:55.179Z,5116
2017-02-14T11:19:08.266Z,5068
2017-02-14T11:20:21.006Z,5072
2017-02-14T11:21:34.078Z,5008
2017-02-14T11:22:47.191Z,4988
2017-02-14T11:24:00.325Z,4968
2017-02-14T11:25:13.446Z,5028
2017-02-14T11:26:26.536Z,5028
2017-02-14T11:27:39.589Z,4936
2017-02-14T11:28:52.660Z,5028
2017-02-14T11:30:05.357Z,5088
2017-02-14T11:31:18.477Z,5096
2017-02-14T11:32:31.549Z,5080
2017-02-14T11:33:44.275Z,5088
2017-02-14T11:34:57.001Z,5060
2017-02-14T11:36:09.716Z,5124
2017-02-14T11:37:22.842Z,5148
2017-02-14T11:38:35.946Z,5180
2017-02-14T11:39:48.667Z,5148
2017-02-14T11:41:01.744Z,5132
2017-02-14T11:42:14.820Z,5160
2017-02-14T11:43:27.920Z,5148
2017-02-14T11:44:40.611Z,5092
2017-02-14T11:45:53.303Z,5116
2017-02-14T11:47:06.377Z,5120
2017-02-14T11:48:19.494Z,5140
2017-02-14T11:49:32.208Z,5180
2017-02-14T11:50:45.287Z,5236
2017-02-14T11:51:58.395Z,5240
2017-02-14T11:53:11.510Z,5284
2017-02-14T11:54:24.553Z,5220
2017-02-14T11:55:37.626Z,5212
2017-02-14T11:56:50.375Z,5256
2017-02-14T11:58:03.510Z,5252
2017-02-14T11:59:16.183Z,5304
2017-02-14T12:00:29.245Z,5356
2017-02-14T12:01:41.166Z,5376
2017-02-14T12:02:53.878Z,5460
2017-02-14T12:04:07.027Z,5476
2017-02-14T12:05:20.186Z,5440
2017-02-14T12:06:33.332Z,5396
2017-02-14T12:07:46.441Z,5392
2017-02-14T12:08:59.499Z,5420
2017-02-14T12:10:12.612Z,5408
2017-02-14T12:11:25.323Z,5392
2017-02-14T12:12:38.423Z,5432
2017-02-14T12:13:51.466Z,5456
2017-02-14T12:15:04.627Z,5496
2017-02-14T12:16:17.711Z,5520
2017-02-14T12:17:30.814Z,5520
2017-02-14T12:18:43.900Z,5524
2017-02-14T12:19:57.086Z,5492
2017-02-14T12:21:09.753Z,5444
2017-02-14T12:22:22.837Z,5420
2017-02-14T12:23:36.003Z,5428
2017-02-14T12:24:49.127Z,5400
2017-02-14T12:26:01.840Z,5296
2017-02-14T12:27:14.166Z,5224
2017-02-14T12:28:27.256Z,5160
2017-02-14T12:29:40.362Z,5184
2017-02-14T12:30:53.102Z,5172
2017-02-14T12:32:06.181Z,5140
2017-02-14T12:33:19.284Z,5096
2017-02-14T12:34:32.330Z,5052
2017-02-14T12:35:45.008Z,5056
2017-02-14T12:36:57.765Z,5032
2017-02-14T12:38:10.857Z,5020
2017-02-14T12:39:24.243Z,5008
2017-02-14T12:40:36.893Z,4976
2017-02-14T12:41:49.949Z,4932
2017-02-14T12:43:03.035Z,4904
2017-02-14T12:44:15.730Z,4880
2017-02-14T12:45:28.777Z,4856
2017-02-14T12:46:41.438Z,4828
2017-02-14T12:47:54.539Z,4800
2017-02-14T12:49:07.713Z,4804
2017-02-14T12:50:20.411Z,4780
2017-02-14T12:51:33.512Z,4744
2017-02-14T12:52:46.628Z,4688
2017-02-14T12:53:59.738Z,4648
2017-02-14T12:55:12.833Z,4632
2017-02-14T12:56:25.536Z,4620
2017-02-14T12:57:38.239Z,4628
2017-02-14T12:58:51.307Z,4624
2017-02-14T13:00:03.580Z,4576
2017-02-14T13:01:16.648Z,4512
2017-02-14T13:02:29.714Z,4488
2017-02-14T13:03:42.490Z,4452
2017-02-14T13:04:55.227Z,4460
2017-02-14T13:06:08.315Z,4464
2017-02-14T13:07:21.418Z,4448
2017-02-14T13:08:34.489Z,4464
2017-02-14T13:09:46.817Z,4420
2017-02-14T13:10:59.920Z,4372
2017-02-14T13:12:13.048Z,4352
2017-02-14T13:13:26.153Z,4340
2017-02-14T13:14:38.883Z,4312
2017-02-14T13:15:52.005Z,4276
2017-02-14T13:17:05.092Z,4272
2017-02-14T13:18:18.186Z,4248
2017-02-14T13:19:30.945Z,4204
2017-02-14T13:20:44.005Z,4200
2017-02-14T13:21:57.125Z,4204
2017-02-14T13:23:10.215Z,4192
2017-02-14T13:24:23.299Z,4188
2017-02-14T13:25:36.399Z,4204
2017-02-14T13:26:49.476Z,4160
2017-02-14T13:28:02.512Z,4136
2017-02-14T13:29:15.183Z,4108
2017-02-14T13:30:28.287Z,4100
2017-02-14T13:31:41.348Z,4088
2017-02-14T13:32:54.430Z,4092
2017-02-14T13:34:07.562Z,4088
2017-02-14T13:35:20.654Z,4092
2017-02-14T13:36:33.776Z,4080
2017-02-14T13:37:46.856Z,4036
2017-02-14T13:38:59.244Z,4024
2017-02-14T13:40:12.368Z,3992
2017-02-14T13:41:25.095Z,3984
2017-02-14T13:42:38.205Z,3984
2017-02-14T13:43:50.943Z,4000
2017-02-14T13:45:04.052Z,4004
2017-02-14T13:46:17.141Z,3988
2017-02-14T13:47:30.289Z,3992
2017-02-14T13:48:42.605Z,3980
2017-02-14T13:49:55.291Z,3964
2017-02-14T13:51:08.379Z,3968
2017-02-14T13:52:21.097Z,3976
2017-02-14T13:53:34.199Z,3976
2017-02-14T13:54:47.282Z,3944
2017-02-14T13:56:00.386Z,3940
2017-02-14T13:57:13.510Z,3932
2017-02-14T13:58:26.607Z,3932
2017-02-14T13:59:39.266Z,3932
2017-02-14T14:00:51.593Z,3912
2017-02-14T14:02:04.681Z,3864
2017-02-14T14:03:17.836Z,3860
2017-02-14T14:04:30.956Z,3832
2017-02-14T14:05:43.654Z,3820
2017-02-14T14:06:56.392Z,3824
2017-02-14T14:08:09.145Z,3784
2017-02-14T14:09:22.290Z,3796
2017-02-14T14:10:35.353Z,3808
2017-02-14T14:11:48.082Z,3756
2017-02-14T14:13:00.729Z,3728
2017-02-14T14:14:13.817Z,3716
2017-02-14T14:15:26.929Z,3712
2017-02-14T14:16:39.991Z,3684
2017-02-14T14:17:53.072Z,3672
2017-02-14T14:19:05.808Z,3664
2017-02-14T14:20:18.912Z,3596
2017-02-14T14:21:32.023Z,3536
2017-02-14T14:22:45.122Z,3544
2017-02-14T14:23:57.825Z,3516
2017-02-14T14:25:10.554Z,3476
2017-02-14T14:26:23.640Z,3472
2017-02-14T14:27:36.728Z,3440
2017-02-14T14:28:49.875Z,3432
2017-02-14T14:30:02.956Z,3448
2017-02-14T14:31:16.116Z,3420
2017-02-14T14:32:29.204Z,3412
2017-02-14T14:33:41.923Z,3392
2017-02-14T14:34:55.046Z,3352
2017-02-14T14:36:07.693Z,3336
2017-02-14T14:37:20.359Z,3328
2017-02-14T14:38:33.485Z,3320
2017-02-14T14:39:46.189Z,3296
2017-02-14T14:40:59.292Z,3276
2017-02-14T14:42:12.030Z,3256
2017-02-14T14:43:25.136Z,3244
2017-02-14T14:44:38.252Z,3220
2017-02-14T14:45:51.359Z,3196
2017-02-14T14:47:04.464Z,3172
2017-02-14T14:48:17.171Z,3132
2017-02-14T14:49:30.258Z,3104
2017-02-14T14:50:42.557Z,3080
2017-02-14T14:51:55.288Z,3060
2017-02-14T14:53:07.577Z,3036
2017-02-14T14:54:20.690Z,3004
2017-02-14T14:55:33.768Z,2976
2017-02-14T14:56:46.506Z,2952
2017-02-14T14:57:59.619Z,2924
2017-02-14T14:59:12.346Z,2900
2017-02-14T15:00:25.444Z,2864
2017-02-14T15:01:38.551Z,2824
2017-02-14T15:02:51.628Z,2788
2017-02-14T15:04:04.679Z,2756
2017-02-14T15:05:16.635Z,2736
2017-02-14T15:06:29.775Z,2708
2017-02-14T15:07:42.920Z,2676
2017-02-14T15:08:56.022Z,2636
2017-02-14T15:10:08.729Z,2608
2017-02-14T15:11:21.508Z,2592
2017-02-14T15:12:34.611Z,2556
2017-02-14T15:13:47.735Z,2520
2017-02-14T15:15:00.851Z,2492
2017-02-14T15:16:13.590Z,2464
2017-02-14T15:17:26.654Z,2432
2017-02-14T15:18:39.739Z,2400
2017-02-14T15:19:52.862Z,2372
2017-02-14T15:21:05.966Z,2328
2017-02-14T15:22:17.927Z,2292
2017-02-14T15:23:30.645Z,2252
2017-02-14T15:24:43.801Z,2220
2017-02-14T15:25:56.907Z,2180
2017-02-14T15:27:09.579Z,2140
2017-02-14T15:28:22.694Z,2108
2017-02-14T15:29:34.622Z,2064
2017-02-14T15:30:47.715Z,2028
2017-02-14T15:32:00.843Z,1988
2017-02-14T15:33:13.985Z,1952
2017-02-14T15:34:27.090Z,1908
2017-02-14T15:35:39.830Z,1872
2017-02-14T15:36:52.971Z,1824
2017-02-14T15:38:06.124Z,1780
2017-02-14T15:39:19.237Z,1744
2017-02-14T15:40:32.351Z,1700
2017-02-14T15:41:45.447Z,1656
2017-02-14T15:42:58.566Z,1604
2017-02-14T15:44:11.656Z,1560
2017-02-14T15:45:24.754Z,1516
2017-02-14T15:46:37.868Z,1468
2017-02-14T15:47:50.900Z,1420
2017-02-14T15:49:03.991Z,1372
2017-02-14T15:50:17.148Z,1324
2017-02-14T15:51:29.877Z,1276
2017-02-14T15:52:42.948Z,1228
2017-02-14T15:53:56.056Z,1176
2017-02-14T15:55:09.165Z,1128
2017-02-14T15:56:21.904Z,1080
2017-02-14T15:57:34.629Z,1032
2017-02-14T15:58:47.703Z,980
2017-02-14T16:00:00.785Z,932
2017-02-14T16:01:13.121Z,880
2017-02-14T16:02:26.276Z,832
2017-02-14T16:03:39.412Z,784
2017-02-14T16:04:52.524Z,736
2017-02-14T16:06:05.663Z,688
2017-02-14T16:07:18.017Z,640
2017-02-14T16:08:31.161Z,596
2017-02-14T16:09:44.277Z,548
2017-02-14T16:10:57.379Z,508
2017-02-14T16:12:09.360Z,468
2017-02-14T16:13:22.526Z,424
2017-02-14T16:14:35.625Z,388
2017-02-14T16:15:48.376Z,352
2017-02-14T16:17:01.077Z,316
2017-02-14T16:18:14.172Z,284
2017-02-14T16:19:26.881Z,252
2017-02-14T16:20:39.635Z,228
2017-02-14T16:21:52.766Z,200
2017-02-14T16:23:05.913Z,172
2017-02-14T16:24:19.016Z,152
2017-02-14T16:25:32.098Z,132
2017-02-14T16:26:45.185Z,112
2017-02-14T16:27:58.271Z,100
2017-02-14T16:29:10.999Z,84
2017-02-14T16:30:24.137Z,68
2017-02-14T16:31:36.462Z,60
2017-02-14T16:32:49.119Z,48
2017-02-14T16:34:02.263Z,40
2017-02-14T16:35:15.004Z,36
2017-02-14T16:36:28.161Z,24
2017-02-14T16:37:41.294Z,24
2017-02-14T16:38:54.409Z,16
2017-02-14T16:40:07.535Z,16
2017-02-14T16:41:20.233Z,12
2017-02-14T16:42:32.933Z,8
2017-02-14T16:43:45.680Z,8
2017-02-14T16:44:58.819Z,8
2017-02-14T16:46:11.918Z,8
2017-02-14T16:47:25.004Z,4
2017-02-14T16:48:38.187Z,4
2017-02-14T16:49:50.883Z,0
2017-02-14T16:51:04.017Z,4
2017-02-14T16:52:16.771Z,4